sensor_id;sensor_type;location;lat;lon;timestamp;P1;durP1;ratioP1;P2;durP2;ratioP2
20379;SDS011;10349;48.666;8.948;2023-04-06T00:02:08;14.83;;;7.47;;
20379;SDS011;10349;48.666;8.948;2023-04-06T00:04:34;12.43;;;7.37;;
20379;SDS011;10349;48.666;8.948;2023-04-06T00:06:59;7.77;;;6.73;;
20379;SDS011;10349;48.666;8.948;2023-04-06T00:09:26;8.97;;;6.53;;
20379;SDS011;10349;48.666;8.948;2023-04-06T00:11:51;10.67;;;8.20;;
20379;SDS011;10349;48.666;8.948;2023-04-06T00:14:17;11.50;;;8.77;;
20379;SDS011;10349;48.666;8.948;2023-04-06T00:16:43;12.43;;;8.73;;
20379;SDS011;10349;48.666;8.948;2023-04-06T00:19:08;15.97;;;8.60;;
20379;SDS011;10349;48.666;8.948;2023-04-06T00:21:34;9.10;;;8.20;;
20379;SDS011;10349;48.666;8.948;2023-04-06T00:24:00;7.47;;;6.70;;
20379;SDS011;10349;48.666;8.948;2023-04-06T00:26:26;12.13;;;6.90;;
20379;SDS011;10349;48.666;8.948;2023-04-06T00:28:54;9.33;;;8.13;;
20379;SDS011;10349;48.666;8.948;2023-04-06T00:31:19;8.30;;;7.20;;
20379;SDS011;10349;48.666;8.948;2023-04-06T00:33:45;11.77;;;6.70;;
20379;SDS011;10349;48.666;8.948;2023-04-06T00:36:11;9.97;;;6.87;;
20379;SDS011;10349;48.666;8.948;2023-04-06T00:38:36;9.20;;;7.20;;
20379;SDS011;10349;48.666;8.948;2023-04-06T00:41:03;10.03;;;7.30;;
20379;SDS011;10349;48.666;8.948;2023-04-06T00:43:29;10.70;;;8.07;;
20379;SDS011;10349;48.666;8.948;2023-04-06T00:45:55;7.67;;;6.93;;
20379;SDS011;10349;48.666;8.948;2023-04-06T00:48:21;7.90;;;6.80;;
20379;SDS011;10349;48.666;8.948;2023-04-06T00:50:47;9.00;;;6.83;;
20379;SDS011;10349;48.666;8.948;2023-04-06T00:53:13;9.70;;;7.37;;
20379;SDS011;10349;48.666;8.948;2023-04-06T00:55:38;9.73;;;7.57;;
20379;SDS011;10349;48.666;8.948;2023-04-06T00:58:06;10.17;;;7.87;;
20379;SDS011;10349;48.666;8.948;2023-04-06T01:00:41;10.33;;;9.23;;
20379;SDS011;10349;48.666;8.948;2023-04-06T01:03:11;8.83;;;6.83;;
20379;SDS011;10349;48.666;8.948;2023-04-06T01:05:41;11.67;;;7.43;;
20379;SDS011;10349;48.666;8.948;2023-04-06T01:08:15;10.00;;;8.40;;
20379;SDS011;10349;48.666;8.948;2023-04-06T01:10:41;15.50;;;8.13;;
20379;SDS011;10349;48.666;8.948;2023-04-06T01:13:15;10.53;;;6.83;;
20379;SDS011;10349;48.666;8.948;2023-04-06T01:15:56;14.70;;;7.40;;
20379;SDS011;10349;48.666;8.948;2023-04-06T01:18:29;9.67;;;6.80;;
20379;SDS011;10349;48.666;8.948;2023-04-06T01:21:10;15.20;;;7.03;;
20379;SDS011;10349;48.666;8.948;2023-04-06T01:23:44;9.57;;;5.83;;
20379;SDS011;10349;48.666;8.948;2023-04-06T01:26:11;7.73;;;7.00;;
20379;SDS011;10349;48.666;8.948;2023-04-06T01:28:38;11.90;;;6.90;;
20379;SDS011;10349;48.666;8.948;2023-04-06T01:31:13;15.10;;;6.97;;
20379;SDS011;10349;48.666;8.948;2023-04-06T01:33:46;12.20;;;8.63;;
20379;SDS011;10349;48.666;8.948;2023-04-06T01:36:16;16.77;;;7.93;;
20379;SDS011;10349;48.666;8.948;2023-04-06T01:38:44;8.53;;;7.63;;
20379;SDS011;10349;48.666;8.948;2023-04-06T01:41:10;10.57;;;7.03;;
20379;SDS011;10349;48.666;8.948;2023-04-06T01:43:47;8.53;;;6.30;;
20379;SDS011;10349;48.666;8.948;2023-04-06T01:46:14;8.97;;;6.60;;
20379;SDS011;10349;48.666;8.948;2023-04-06T01:48:42;8.00;;;6.90;;
20379;SDS011;10349;48.666;8.948;2023-04-06T01:51:17;12.17;;;6.80;;
20379;SDS011;10349;48.666;8.948;2023-04-06T01:53:49;7.07;;;6.47;;
20379;SDS011;10349;48.666;8.948;2023-04-06T01:56:17;14.83;;;7.00;;
20379;SDS011;10349;48.666;8.948;2023-04-06T01:58:51;7.23;;;6.27;;
20379;SDS011;10349;48.666;8.948;2023-04-06T02:01:17;11.83;;;7.60;;
20379;SDS011;10349;48.666;8.948;2023-04-06T02:03:50;10.13;;;7.37;;
20379;SDS011;10349;48.666;8.948;2023-04-06T02:06:16;6.60;;;5.97;;
20379;SDS011;10349;48.666;8.948;2023-04-06T02:08:41;7.47;;;6.73;;
20379;SDS011;10349;48.666;8.948;2023-04-06T02:11:07;10.00;;;7.07;;
20379;SDS011;10349;48.666;8.948;2023-04-06T02:13:39;10.57;;;7.10;;
20379;SDS011;10349;48.666;8.948;2023-04-06T02:16:05;8.40;;;7.60;;
20379;SDS011;10349;48.666;8.948;2023-04-06T02:18:31;8.10;;;6.77;;
20379;SDS011;10349;48.666;8.948;2023-04-06T02:20:56;9.83;;;6.03;;
20379;SDS011;10349;48.666;8.948;2023-04-06T02:23:22;10.67;;;7.77;;
20379;SDS011;10349;48.666;8.948;2023-04-06T02:25:48;14.03;;;7.70;;
20379;SDS011;10349;48.666;8.948;2023-04-06T02:28:14;7.97;;;7.17;;
20379;SDS011;10349;48.666;8.948;2023-04-06T02:30:40;10.30;;;7.23;;
20379;SDS011;10349;48.666;8.948;2023-04-06T02:33:06;14.83;;;8.00;;
20379;SDS011;10349;48.666;8.948;2023-04-06T02:35:39;12.17;;;7.60;;
20379;SDS011;10349;48.666;8.948;2023-04-06T02:38:06;10.73;;;7.43;;
20379;SDS011;10349;48.666;8.948;2023-04-06T02:40:31;9.60;;;7.77;;
20379;SDS011;10349;48.666;8.948;2023-04-06T02:43:05;8.37;;;6.50;;
20379;SDS011;10349;48.666;8.948;2023-04-06T02:45:31;8.70;;;6.40;;
20379;SDS011;10349;48.666;8.948;2023-04-06T02:47:59;13.43;;;7.13;;
20379;SDS011;10349;48.666;8.948;2023-04-06T02:50:25;8.90;;;8.03;;
20379;SDS011;10349;48.666;8.948;2023-04-06T02:52:57;8.53;;;7.73;;
20379;SDS011;10349;48.666;8.948;2023-04-06T02:55:23;9.20;;;7.23;;
20379;SDS011;10349;48.666;8.948;2023-04-06T02:57:49;8.13;;;7.07;;
20379;SDS011;10349;48.666;8.948;2023-04-06T03:00:16;9.80;;;7.47;;
20379;SDS011;10349;48.666;8.948;2023-04-06T03:02:42;13.00;;;8.37;;
20379;SDS011;10349;48.666;8.948;2023-04-06T03:05:12;8.63;;;7.63;;
20379;SDS011;10349;48.666;8.948;2023-04-06T03:07:41;12.83;;;8.57;;
20379;SDS011;10349;48.666;8.948;2023-04-06T03:10:12;12.20;;;8.60;;
20379;SDS011;10349;48.666;8.948;2023-04-06T03:12:38;12.20;;;8.57;;
20379;SDS011;10349;48.666;8.948;2023-04-06T03:15:15;10.63;;;7.43;;
20379;SDS011;10349;48.666;8.948;2023-04-06T03:17:46;8.27;;;6.97;;
20379;SDS011;10349;48.666;8.948;2023-04-06T03:20:27;13.97;;;9.53;;
20379;SDS011;10349;48.666;8.948;2023-04-06T03:22:53;9.80;;;7.40;;
20379;SDS011;10349;48.666;8.948;2023-04-06T03:25:23;14.70;;;8.17;;
20379;SDS011;10349;48.666;8.948;2023-04-06T03:27:49;16.27;;;8.93;;
20379;SDS011;10349;48.666;8.948;2023-04-06T03:30:17;10.60;;;7.93;;
20379;SDS011;10349;48.666;8.948;2023-04-06T03:32:43;14.30;;;9.50;;
20379;SDS011;10349;48.666;8.948;2023-04-06T03:35:09;15.80;;;7.97;;
20379;SDS011;10349;48.666;8.948;2023-04-06T03:37:35;14.33;;;9.57;;
20379;SDS011;10349;48.666;8.948;2023-04-06T03:40:02;10.47;;;7.23;;
20379;SDS011;10349;48.666;8.948;2023-04-06T03:42:29;12.60;;;8.40;;
20379;SDS011;10349;48.666;8.948;2023-04-06T03:45:01;10.47;;;7.00;;
20379;SDS011;10349;48.666;8.948;2023-04-06T03:47:28;9.67;;;6.93;;
20379;SDS011;10349;48.666;8.948;2023-04-06T03:49:58;11.90;;;7.30;;
20379;SDS011;10349;48.666;8.948;2023-04-06T03:52:24;11.00;;;7.43;;
20379;SDS011;10349;48.666;8.948;2023-04-06T03:54:51;21.53;;;8.30;;
20379;SDS011;10349;48.666;8.948;2023-04-06T03:57:17;11.37;;;7.37;;
20379;SDS011;10349;48.666;8.948;2023-04-06T03:59:42;8.77;;;6.80;;
20379;SDS011;10349;48.666;8.948;2023-04-06T04:02:08;17.83;;;8.23;;
20379;SDS011;10349;48.666;8.948;2023-04-06T04:04:34;12.03;;;7.53;;
20379;SDS011;10349;48.666;8.948;2023-04-06T04:07:00;15.60;;;8.43;;
20379;SDS011;10349;48.666;8.948;2023-04-06T04:09:25;14.33;;;8.53;;
20379;SDS011;10349;48.666;8.948;2023-04-06T04:11:51;10.60;;;8.00;;
20379;SDS011;10349;48.666;8.948;2023-04-06T04:14:17;10.20;;;7.33;;
20379;SDS011;10349;48.666;8.948;2023-04-06T04:16:43;11.07;;;7.57;;
20379;SDS011;10349;48.666;8.948;2023-04-06T04:19:09;17.50;;;8.10;;
20379;SDS011;10349;48.666;8.948;2023-04-06T04:21:41;10.33;;;7.00;;
20379;SDS011;10349;48.666;8.948;2023-04-06T04:24:11;12.90;;;7.30;;
20379;SDS011;10349;48.666;8.948;2023-04-06T04:26:38;10.33;;;6.93;;
20379;SDS011;10349;48.666;8.948;2023-04-06T04:29:05;7.00;;;6.30;;
20379;SDS011;10349;48.666;8.948;2023-04-06T04:31:32;7.30;;;6.60;;
20379;SDS011;10349;48.666;8.948;2023-04-06T04:34:01;8.03;;;7.23;;
20379;SDS011;10349;48.666;8.948;2023-04-06T04:36:30;8.20;;;6.60;;
20379;SDS011;10349;48.666;8.948;2023-04-06T04:39:00;12.97;;;7.33;;
20379;SDS011;10349;48.666;8.948;2023-04-06T04:41:29;10.50;;;7.13;;
20379;SDS011;10349;48.666;8.948;2023-04-06T04:43:55;7.47;;;6.73;;
20379;SDS011;10349;48.666;8.948;2023-04-06T04:46:25;10.33;;;6.90;;
20379;SDS011;10349;48.666;8.948;2023-04-06T04:48:51;11.70;;;8.20;;
20379;SDS011;10349;48.666;8.948;2023-04-06T04:51:17;12.83;;;7.27;;
20379;SDS011;10349;48.666;8.948;2023-04-06T04:54:10;10.37;;;7.50;;
20379;SDS011;10349;48.666;8.948;2023-04-06T04:56:36;10.90;;;7.67;;
20379;SDS011;10349;48.666;8.948;2023-04-06T04:59:37;11.40;;;8.53;;
20379;SDS011;10349;48.666;8.948;2023-04-06T05:02:11;8.17;;;7.47;;
20379;SDS011;10349;48.666;8.948;2023-04-06T05:04:47;9.03;;;7.93;;
20379;SDS011;10349;48.666;8.948;2023-04-06T05:07:18;10.03;;;8.20;;
20379;SDS011;10349;48.666;8.948;2023-04-06T05:09:45;11.97;;;9.03;;
20379;SDS011;10349;48.666;8.948;2023-04-06T05:12:12;13.70;;;9.10;;
20379;SDS011;10349;48.666;8.948;2023-04-06T05:14:48;10.37;;;8.07;;
20379;SDS011;10349;48.666;8.948;2023-04-06T05:17:17;11.17;;;8.03;;
20379;SDS011;10349;48.666;8.948;2023-04-06T05:19:43;7.40;;;6.17;;
20379;SDS011;10349;48.666;8.948;2023-04-06T05:22:11;12.60;;;8.13;;
20379;SDS011;10349;48.666;8.948;2023-04-06T05:24:40;16.73;;;7.70;;
20379;SDS011;10349;48.666;8.948;2023-04-06T05:27:07;13.67;;;7.20;;
20379;SDS011;10349;48.666;8.948;2023-04-06T05:29:33;12.00;;;7.67;;
20379;SDS011;10349;48.666;8.948;2023-04-06T05:31:58;8.27;;;7.50;;
20379;SDS011;10349;48.666;8.948;2023-04-06T05:34:25;14.33;;;8.90;;
20379;SDS011;10349;48.666;8.948;2023-04-06T05:36:52;14.53;;;9.90;;
20379;SDS011;10349;48.666;8.948;2023-04-06T05:39:21;10.10;;;8.27;;
20379;SDS011;10349;48.666;8.948;2023-04-06T05:41:49;11.13;;;9.00;;
20379;SDS011;10349;48.666;8.948;2023-04-06T05:44:20;13.90;;;7.87;;
20379;SDS011;10349;48.666;8.948;2023-04-06T05:46:53;11.97;;;8.30;;
20379;SDS011;10349;48.666;8.948;2023-04-06T05:49:20;13.87;;;8.87;;
20379;SDS011;10349;48.666;8.948;2023-04-06T05:51:45;12.40;;;8.07;;
20379;SDS011;10349;48.666;8.948;2023-04-06T05:54:11;13.87;;;8.43;;
20379;SDS011;10349;48.666;8.948;2023-04-06T05:56:38;10.60;;;7.90;;
20379;SDS011;10349;48.666;8.948;2023-04-06T05:59:05;12.50;;;8.63;;
20379;SDS011;10349;48.666;8.948;2023-04-06T06:01:30;9.37;;;7.67;;
20379;SDS011;10349;48.666;8.948;2023-04-06T06:03:58;10.50;;;8.10;;
20379;SDS011;10349;48.666;8.948;2023-04-06T06:06:28;8.37;;;6.50;;
20379;SDS011;10349;48.666;8.948;2023-04-06T06:09:19;12.60;;;9.23;;
20379;SDS011;10349;48.666;8.948;2023-04-06T06:12:03;10.93;;;7.03;;
20379;SDS011;10349;48.666;8.948;2023-04-06T06:14:29;11.90;;;8.87;;
20379;SDS011;10349;48.666;8.948;2023-04-06T06:16:55;8.97;;;8.00;;
20379;SDS011;10349;48.666;8.948;2023-04-06T06:19:21;15.17;;;9.50;;
20379;SDS011;10349;48.666;8.948;2023-04-06T06:21:48;12.63;;;8.83;;
20379;SDS011;10349;48.666;8.948;2023-04-06T06:24:14;13.37;;;9.37;;
20379;SDS011;10349;48.666;8.948;2023-04-06T06:26:40;10.13;;;7.83;;
20379;SDS011;10349;48.666;8.948;2023-04-06T06:29:07;12.20;;;9.30;;
20379;SDS011;10349;48.666;8.948;2023-04-06T06:31:38;18.47;;;9.60;;
20379;SDS011;10349;48.666;8.948;2023-04-06T06:34:04;10.50;;;8.53;;
20379;SDS011;10349;48.666;8.948;2023-04-06T06:36:32;14.37;;;9.40;;
20379;SDS011;10349;48.666;8.948;2023-04-06T06:38:58;15.63;;;10.47;;
20379;SDS011;10349;48.666;8.948;2023-04-06T06:41:25;11.13;;;9.40;;
20379;SDS011;10349;48.666;8.948;2023-04-06T06:43:53;12.10;;;7.73;;
20379;SDS011;10349;48.666;8.948;2023-04-06T06:46:19;10.97;;;9.50;;
20379;SDS011;10349;48.666;8.948;2023-04-06T06:48:45;13.97;;;9.47;;
20379;SDS011;10349;48.666;8.948;2023-04-06T06:51:11;19.93;;;12.43;;
20379;SDS011;10349;48.666;8.948;2023-04-06T06:53:39;20.73;;;10.80;;
20379;SDS011;10349;48.666;8.948;2023-04-06T06:56:05;19.73;;;11.60;;
20379;SDS011;10349;48.666;8.948;2023-04-06T06:58:31;14.87;;;9.73;;
20379;SDS011;10349;48.666;8.948;2023-04-06T07:00:58;12.77;;;10.67;;
20379;SDS011;10349;48.666;8.948;2023-04-06T07:03:25;16.27;;;9.93;;
20379;SDS011;10349;48.666;8.948;2023-04-06T07:05:52;15.80;;;10.70;;
20379;SDS011;10349;48.666;8.948;2023-04-06T07:08:20;17.07;;;11.40;;
20379;SDS011;10349;48.666;8.948;2023-04-06T07:10:47;27.50;;;12.80;;
20379;SDS011;10349;48.666;8.948;2023-04-06T07:13:13;12.90;;;9.17;;
20379;SDS011;10349;48.666;8.948;2023-04-06T07:15:47;13.43;;;10.20;;
20379;SDS011;10349;48.666;8.948;2023-04-06T07:18:13;15.33;;;10.33;;
20379;SDS011;10349;48.666;8.948;2023-04-06T07:20:39;17.43;;;10.53;;
20379;SDS011;10349;48.666;8.948;2023-04-06T07:23:05;12.23;;;9.33;;
20379;SDS011;10349;48.666;8.948;2023-04-06T07:25:30;15.00;;;10.03;;
20379;SDS011;10349;48.666;8.948;2023-04-06T07:27:56;22.10;;;11.57;;
20379;SDS011;10349;48.666;8.948;2023-04-06T07:30:23;11.13;;;9.50;;
20379;SDS011;10349;48.666;8.948;2023-04-06T07:32:51;13.30;;;9.70;;
20379;SDS011;10349;48.666;8.948;2023-04-06T07:35:17;14.23;;;9.03;;
20379;SDS011;10349;48.666;8.948;2023-04-06T07:37:43;14.07;;;10.30;;
20379;SDS011;10349;48.666;8.948;2023-04-06T07:40:09;16.23;;;9.67;;
20379;SDS011;10349;48.666;8.948;2023-04-06T07:42:36;16.10;;;10.30;;
20379;SDS011;10349;48.666;8.948;2023-04-06T07:45:04;18.97;;;11.37;;
20379;SDS011;10349;48.666;8.948;2023-04-06T07:47:31;11.87;;;9.70;;
20379;SDS011;10349;48.666;8.948;2023-04-06T07:49:58;13.97;;;9.73;;
20379;SDS011;10349;48.666;8.948;2023-04-06T07:52:25;19.90;;;10.53;;
20379;SDS011;10349;48.666;8.948;2023-04-06T07:54:51;9.00;;;8.10;;
20379;SDS011;10349;48.666;8.948;2023-04-06T07:57:17;11.07;;;9.60;;
20379;SDS011;10349;48.666;8.948;2023-04-06T07:59:43;14.43;;;9.20;;
20379;SDS011;10349;48.666;8.948;2023-04-06T08:02:09;13.57;;;8.70;;
20379;SDS011;10349;48.666;8.948;2023-04-06T08:04:35;11.90;;;8.57;;
20379;SDS011;10349;48.666;8.948;2023-04-06T08:07:00;13.00;;;9.30;;
20379;SDS011;10349;48.666;8.948;2023-04-06T08:09:26;12.50;;;8.97;;
20379;SDS011;10349;48.666;8.948;2023-04-06T08:11:52;12.47;;;7.97;;
20379;SDS011;10349;48.666;8.948;2023-04-06T08:14:18;11.53;;;9.13;;
20379;SDS011;10349;48.666;8.948;2023-04-06T08:16:44;16.90;;;9.17;;
20379;SDS011;10349;48.666;8.948;2023-04-06T08:19:10;11.10;;;9.17;;
20379;SDS011;10349;48.666;8.948;2023-04-06T08:21:36;15.50;;;8.60;;
20379;SDS011;10349;48.666;8.948;2023-04-06T08:24:02;11.23;;;8.53;;
20379;SDS011;10349;48.666;8.948;2023-04-06T08:26:27;10.87;;;9.00;;
20379;SDS011;10349;48.666;8.948;2023-04-06T08:28:53;12.40;;;9.40;;
20379;SDS011;10349;48.666;8.948;2023-04-06T08:31:19;16.03;;;8.43;;
20379;SDS011;10349;48.666;8.948;2023-04-06T08:33:46;8.73;;;7.77;;
20379;SDS011;10349;48.666;8.948;2023-04-06T08:36:12;10.60;;;7.40;;
20379;SDS011;10349;48.666;8.948;2023-04-06T08:38:39;15.70;;;7.47;;
20379;SDS011;10349;48.666;8.948;2023-04-06T08:41:10;13.00;;;8.90;;
20379;SDS011;10349;48.666;8.948;2023-04-06T08:43:41;12.97;;;7.40;;
20379;SDS011;10349;48.666;8.948;2023-04-06T08:46:09;7.90;;;7.20;;
20379;SDS011;10349;48.666;8.948;2023-04-06T08:48:41;10.70;;;6.77;;
20379;SDS011;10349;48.666;8.948;2023-04-06T08:51:11;15.13;;;8.37;;
20379;SDS011;10349;48.666;8.948;2023-04-06T08:53:37;9.33;;;8.13;;
20379;SDS011;10349;48.666;8.948;2023-04-06T08:56:04;8.77;;;7.87;;
20379;SDS011;10349;48.666;8.948;2023-04-06T08:58:34;11.23;;;8.07;;
20379;SDS011;10349;48.666;8.948;2023-04-06T09:01:03;13.50;;;8.17;;
20379;SDS011;10349;48.666;8.948;2023-04-06T09:03:34;13.87;;;8.17;;
20379;SDS011;10349;48.666;8.948;2023-04-06T09:06:03;9.90;;;8.10;;
20379;SDS011;10349;48.666;8.948;2023-04-06T09:08:29;7.90;;;7.00;;
20379;SDS011;10349;48.666;8.948;2023-04-06T09:10:55;11.00;;;7.27;;
20379;SDS011;10349;48.666;8.948;2023-04-06T09:13:21;11.07;;;7.10;;
20379;SDS011;10349;48.666;8.948;2023-04-06T09:15:46;10.47;;;6.07;;
20379;SDS011;10349;48.666;8.948;2023-04-06T09:18:29;7.77;;;5.30;;
20379;SDS011;10349;48.666;8.948;2023-04-06T09:20:58;10.07;;;6.57;;
20379;SDS011;10349;48.666;8.948;2023-04-06T09:23:28;13.90;;;7.23;;
20379;SDS011;10349;48.666;8.948;2023-04-06T09:31:22;7.00;;;5.93;;
20379;SDS011;10349;48.666;8.948;2023-04-06T09:33:52;6.27;;;5.23;;
20379;SDS011;10349;48.666;8.948;2023-04-06T09:36:19;6.10;;;5.40;;
20379;SDS011;10349;48.666;8.948;2023-04-06T09:38:58;6.63;;;5.43;;
20379;SDS011;10349;48.666;8.948;2023-04-06T09:41:25;7.70;;;6.00;;
20379;SDS011;10349;48.666;8.948;2023-04-06T09:44:05;5.60;;;5.10;;
20379;SDS011;10349;48.666;8.948;2023-04-06T09:46:38;6.10;;;5.50;;
20379;SDS011;10349;48.666;8.948;2023-04-06T09:49:09;8.73;;;5.30;;
20379;SDS011;10349;48.666;8.948;2023-04-06T09:51:36;6.70;;;6.07;;
20379;SDS011;10349;48.666;8.948;2023-04-06T09:54:03;11.27;;;6.53;;
20379;SDS011;10349;48.666;8.948;2023-04-06T09:56:31;7.53;;;6.60;;
20379;SDS011;10349;48.666;8.948;2023-04-06T09:59:04;7.90;;;6.53;;
20379;SDS011;10349;48.666;8.948;2023-04-06T10:01:33;6.70;;;6.17;;
20379;SDS011;10349;48.666;8.948;2023-04-06T10:04:21;8.33;;;7.10;;
20379;SDS011;10349;48.666;8.948;2023-04-06T10:06:54;9.70;;;6.30;;
20379;SDS011;10349;48.666;8.948;2023-04-06T10:09:23;9.07;;;6.87;;
20379;SDS011;10349;48.666;8.948;2023-04-06T10:11:53;9.70;;;6.10;;
20379;SDS011;10349;48.666;8.948;2023-04-06T10:14:19;8.17;;;6.50;;
20379;SDS011;10349;48.666;8.948;2023-04-06T10:16:45;10.00;;;7.43;;
20379;SDS011;10349;48.666;8.948;2023-04-06T10:19:16;11.80;;;5.77;;
20379;SDS011;10349;48.666;8.948;2023-04-06T10:21:46;6.57;;;5.93;;
20379;SDS011;10349;48.666;8.948;2023-04-06T10:24:15;10.50;;;6.33;;
20379;SDS011;10349;48.666;8.948;2023-04-06T10:26:42;6.60;;;6.10;;
20379;SDS011;10349;48.666;8.948;2023-04-06T10:29:08;14.97;;;6.97;;
20379;SDS011;10349;48.666;8.948;2023-04-06T10:31:38;8.07;;;6.00;;
20379;SDS011;10349;48.666;8.948;2023-04-06T10:34:07;13.40;;;6.67;;
20379;SDS011;10349;48.666;8.948;2023-04-06T10:36:33;9.17;;;7.00;;
20379;SDS011;10349;48.666;8.948;2023-04-06T10:39:00;6.60;;;5.87;;
20379;SDS011;10349;48.666;8.948;2023-04-06T10:41:35;6.03;;;5.43;;
20379;SDS011;10349;48.666;8.948;2023-04-06T10:44:21;8.67;;;6.53;;
20379;SDS011;10349;48.666;8.948;2023-04-06T10:46:55;10.97;;;7.73;;
20379;SDS011;10349;48.666;8.948;2023-04-06T10:49:22;9.70;;;6.70;;
20379;SDS011;10349;48.666;8.948;2023-04-06T10:51:51;7.70;;;6.97;;
20379;SDS011;10349;48.666;8.948;2023-04-06T10:54:21;8.27;;;6.63;;
20379;SDS011;10349;48.666;8.948;2023-04-06T10:56:48;9.47;;;7.70;;
20379;SDS011;10349;48.666;8.948;2023-04-06T10:59:19;9.40;;;6.60;;
20379;SDS011;10349;48.666;8.948;2023-04-06T11:01:46;11.30;;;7.07;;
20379;SDS011;10349;48.666;8.948;2023-04-06T11:04:15;7.33;;;6.27;;
20379;SDS011;10349;48.666;8.948;2023-04-06T11:06:48;10.00;;;6.97;;
20379;SDS011;10349;48.666;8.948;2023-04-06T11:09:27;7.83;;;7.00;;
20379;SDS011;10349;48.666;8.948;2023-04-06T11:11:54;8.00;;;6.30;;
20379;SDS011;10349;48.666;8.948;2023-04-06T11:14:21;9.30;;;6.80;;
20379;SDS011;10349;48.666;8.948;2023-04-06T11:16:47;7.77;;;6.97;;
20379;SDS011;10349;48.666;8.948;2023-04-06T11:19:15;7.13;;;6.30;;
20379;SDS011;10349;48.666;8.948;2023-04-06T11:21:41;7.40;;;6.60;;
20379;SDS011;10349;48.666;8.948;2023-04-06T11:24:17;9.03;;;6.67;;
20379;SDS011;10349;48.666;8.948;2023-04-06T11:26:48;7.30;;;6.27;;
20379;SDS011;10349;48.666;8.948;2023-04-06T11:29:17;9.13;;;6.00;;
20379;SDS011;10349;48.666;8.948;2023-04-06T11:31:54;9.30;;;7.13;;
20379;SDS011;10349;48.666;8.948;2023-04-06T11:34:24;8.40;;;6.60;;
20379;SDS011;10349;48.666;8.948;2023-04-06T11:36:55;8.23;;;6.60;;
20379;SDS011;10349;48.666;8.948;2023-04-06T11:39:42;7.63;;;6.60;;
20379;SDS011;10349;48.666;8.948;2023-04-06T11:42:12;7.90;;;7.00;;
20379;SDS011;10349;48.666;8.948;2023-04-06T11:44:38;9.77;;;7.57;;
20379;SDS011;10349;48.666;8.948;2023-04-06T11:47:08;6.87;;;6.10;;
20379;SDS011;10349;48.666;8.948;2023-04-06T11:49:39;11.40;;;7.50;;
20379;SDS011;10349;48.666;8.948;2023-04-06T11:54:46;7.93;;;6.20;;
20379;SDS011;10349;48.666;8.948;2023-04-06T11:57:13;8.93;;;6.10;;
20379;SDS011;10349;48.666;8.948;2023-04-06T11:59:39;7.43;;;5.90;;
20379;SDS011;10349;48.666;8.948;2023-04-06T12:02:04;8.57;;;6.90;;
20379;SDS011;10349;48.666;8.948;2023-04-06T12:04:31;9.67;;;6.87;;
20379;SDS011;10349;48.666;8.948;2023-04-06T12:06:57;6.87;;;6.07;;
20379;SDS011;10349;48.666;8.948;2023-04-06T12:09:23;6.73;;;6.03;;
20379;SDS011;10349;48.666;8.948;2023-04-06T12:11:48;7.80;;;7.00;;
20379;SDS011;10349;48.666;8.948;2023-04-06T12:14:14;7.07;;;6.33;;
20379;SDS011;10349;48.666;8.948;2023-04-06T12:16:41;9.97;;;6.50;;
20379;SDS011;10349;48.666;8.948;2023-04-06T12:19:07;7.40;;;5.87;;
20379;SDS011;10349;48.666;8.948;2023-04-06T12:21:33;6.30;;;5.00;;
20379;SDS011;10349;48.666;8.948;2023-04-06T12:24:02;7.80;;;5.57;;
20379;SDS011;10349;48.666;8.948;2023-04-06T12:26:29;8.50;;;6.00;;
20379;SDS011;10349;48.666;8.948;2023-04-06T12:28:55;7.97;;;5.60;;
20379;SDS011;10349;48.666;8.948;2023-04-06T12:31:21;7.43;;;5.40;;
20379;SDS011;10349;48.666;8.948;2023-04-06T12:33:48;6.07;;;5.23;;
20379;SDS011;10349;48.666;8.948;2023-04-06T12:36:16;6.80;;;5.70;;
20379;SDS011;10349;48.666;8.948;2023-04-06T12:38:49;9.60;;;5.57;;
20379;SDS011;10349;48.666;8.948;2023-04-06T12:41:16;5.57;;;4.90;;
20379;SDS011;10349;48.666;8.948;2023-04-06T12:43:43;6.10;;;5.20;;
20379;SDS011;10349;48.666;8.948;2023-04-06T12:46:09;5.97;;;5.47;;
20379;SDS011;10349;48.666;8.948;2023-04-06T12:48:35;6.53;;;5.07;;
20379;SDS011;10349;48.666;8.948;2023-04-06T12:51:02;5.30;;;4.90;;
20379;SDS011;10349;48.666;8.948;2023-04-06T12:53:29;5.93;;;5.43;;
20379;SDS011;10349;48.666;8.948;2023-04-06T12:55:55;6.73;;;5.77;;
20379;SDS011;10349;48.666;8.948;2023-04-06T12:58:22;7.90;;;5.83;;
20379;SDS011;10349;48.666;8.948;2023-04-06T13:00:48;6.87;;;5.57;;
20379;SDS011;10349;48.666;8.948;2023-04-06T13:03:15;5.33;;;4.83;;
20379;SDS011;10349;48.666;8.948;2023-04-06T13:05:45;6.23;;;5.63;;
20379;SDS011;10349;48.666;8.948;2023-04-06T13:08:12;6.00;;;5.47;;
20379;SDS011;10349;48.666;8.948;2023-04-06T13:10:42;6.37;;;5.30;;
20379;SDS011;10349;48.666;8.948;2023-04-06T13:13:09;5.93;;;5.33;;
20379;SDS011;10349;48.666;8.948;2023-04-06T13:15:34;7.67;;;6.07;;
20379;SDS011;10349;48.666;8.948;2023-04-06T13:18:01;6.00;;;5.40;;
20379;SDS011;10349;48.666;8.948;2023-04-06T13:20:27;6.03;;;5.53;;
20379;SDS011;10349;48.666;8.948;2023-04-06T13:22:53;6.57;;;5.83;;
20379;SDS011;10349;48.666;8.948;2023-04-06T13:25:19;6.00;;;5.40;;
20379;SDS011;10349;48.666;8.948;2023-04-06T13:27:45;5.57;;;4.90;;
20379;SDS011;10349;48.666;8.948;2023-04-06T13:30:13;5.70;;;5.10;;
20379;SDS011;10349;48.666;8.948;2023-04-06T13:32:39;6.63;;;5.97;;
20379;SDS011;10349;48.666;8.948;2023-04-06T13:35:05;9.87;;;6.73;;
20379;SDS011;10349;48.666;8.948;2023-04-06T13:37:32;9.00;;;6.10;;
20379;SDS011;10349;48.666;8.948;2023-04-06T13:39:58;7.40;;;6.03;;
20379;SDS011;10349;48.666;8.948;2023-04-06T13:42:24;5.57;;;5.03;;
20379;SDS011;10349;48.666;8.948;2023-04-06T13:44:51;8.60;;;6.00;;
20379;SDS011;10349;48.666;8.948;2023-04-06T13:47:19;7.50;;;5.47;;
20379;SDS011;10349;48.666;8.948;2023-04-06T13:49:46;6.17;;;5.43;;
20379;SDS011;10349;48.666;8.948;2023-04-06T13:52:12;6.27;;;5.33;;
20379;SDS011;10349;48.666;8.948;2023-04-06T13:54:38;11.90;;;6.60;;
20379;SDS011;10349;48.666;8.948;2023-04-06T13:57:04;6.97;;;5.90;;
20379;SDS011;10349;48.666;8.948;2023-04-06T13:59:36;7.53;;;5.90;;
20379;SDS011;10349;48.666;8.948;2023-04-06T14:02:03;6.47;;;5.27;;
20379;SDS011;10349;48.666;8.948;2023-04-06T14:04:29;7.13;;;5.10;;
20379;SDS011;10349;48.666;8.948;2023-04-06T14:06:59;11.80;;;6.33;;
20379;SDS011;10349;48.666;8.948;2023-04-06T14:09:25;5.67;;;5.20;;
20379;SDS011;10349;48.666;8.948;2023-04-06T14:11:51;5.87;;;5.40;;
20379;SDS011;10349;48.666;8.948;2023-04-06T14:14:17;6.63;;;6.00;;
20379;SDS011;10349;48.666;8.948;2023-04-06T14:16:43;8.03;;;5.30;;
20379;SDS011;10349;48.666;8.948;2023-04-06T14:19:10;12.07;;;6.80;;
20379;SDS011;10349;48.666;8.948;2023-04-06T14:21:37;6.57;;;5.87;;
20379;SDS011;10349;48.666;8.948;2023-04-06T14:24:05;6.80;;;6.20;;
20379;SDS011;10349;48.666;8.948;2023-04-06T14:26:32;6.63;;;6.03;;
20379;SDS011;10349;48.666;8.948;2023-04-06T14:28:59;8.23;;;5.60;;
20379;SDS011;10349;48.666;8.948;2023-04-06T14:31:26;6.23;;;5.63;;
20379;SDS011;10349;48.666;8.948;2023-04-06T14:33:52;6.33;;;5.53;;
20379;SDS011;10349;48.666;8.948;2023-04-06T14:36:18;5.93;;;5.40;;
20379;SDS011;10349;48.666;8.948;2023-04-06T14:38:57;7.60;;;5.90;;
20379;SDS011;10349;48.666;8.948;2023-04-06T14:41:23;9.23;;;6.23;;
20379;SDS011;10349;48.666;8.948;2023-04-06T14:43:50;7.40;;;6.30;;
20379;SDS011;10349;48.666;8.948;2023-04-06T14:46:17;8.33;;;6.17;;
20379;SDS011;10349;48.666;8.948;2023-04-06T14:48:43;7.20;;;5.90;;
20379;SDS011;10349;48.666;8.948;2023-04-06T14:51:10;6.60;;;6.00;;
20379;SDS011;10349;48.666;8.948;2023-04-06T14:53:36;5.60;;;5.10;;
20379;SDS011;10349;48.666;8.948;2023-04-06T14:56:03;5.70;;;5.20;;